Terminal Aerodrome Forecast
Issued by NWS Raleigh/Durham, NC

Home | Current Version | Previous Version | Text Only | Print | Product List | Glossary On
Versions: 1 2 3 4 5 6 7 8 9 10 11 12 13 14 15 16 17 18 19 20 21 22 23 24 25 26 27 28
000
FTUS42 KRAH 232336
TAFFAY
TAF
KFAY 232336Z 2400/2424 10014G20KT 6SM -RA BKN035 OVC110
     FM240400 09013KT 5SM -SHRA BR OVC020
      TEMPO 2404/2407 2SM SHRA OVC007
     FM241100 09014KT 5SM SHRA BR OVC008
     FM241400 12010G20KT P6SM VCSH BKN020 BKN060
     FM241800 17012G22KT P6SM VCTS BKN035CB=

USA.gov is the U.S. government's official web portal to all federal, state and local government web resources and services.